sensor_id;sensor_type;location;lat;lon;timestamp;pressure;altitude;pressure_sealevel;temperature
26158;BMP280;67284;44.782;10.282;2023-06-14T00:02:06;100449.50;;;20.75
26158;BMP280;67284;44.782;10.282;2023-06-14T00:07:00;100445.13;;;20.75
26158;BMP280;67284;44.782;10.282;2023-06-14T00:11:55;100447.84;;;20.74
26158;BMP280;67284;44.782;10.282;2023-06-14T00:16:47;100445.22;;;20.74
26158;BMP280;67284;44.782;10.282;2023-06-14T00:21:39;100453.97;;;20.73
26158;BMP280;67284;44.782;10.282;2023-06-14T00:26:32;100453.22;;;20.71
26158;BMP280;67284;44.782;10.282;2023-06-14T00:31:24;100439.34;;;20.69
26158;BMP280;67284;44.782;10.282;2023-06-14T00:36:18;100434.13;;;20.69
26158;BMP280;67284;44.782;10.282;2023-06-14T00:41:10;100428.16;;;20.67
26158;BMP280;67284;44.782;10.282;2023-06-14T00:46:02;100429.16;;;20.64
26158;BMP280;67284;44.782;10.282;2023-06-14T00:50:54;100411.69;;;20.65
26158;BMP280;67284;44.782;10.282;2023-06-14T00:55:47;100410.94;;;20.63
26158;BMP280;67284;44.782;10.282;2023-06-14T01:00:40;100418.88;;;20.61
26158;BMP280;67284;44.782;10.282;2023-06-14T01:05:32;100414.63;;;20.59
26158;BMP280;67284;44.782;10.282;2023-06-14T01:10:41;100406.06;;;20.57
26158;BMP280;67284;44.782;10.282;2023-06-14T01:15:37;100416.59;;;20.55
26158;BMP280;67284;44.782;10.282;2023-06-14T01:20:32;100414.06;;;20.54
26158;BMP280;67284;44.782;10.282;2023-06-14T01:25:24;100413.28;;;20.52
26158;BMP280;67284;44.782;10.282;2023-06-14T01:30:17;100399.47;;;20.50
26158;BMP280;67284;44.782;10.282;2023-06-14T01:35:11;100405.63;;;20.49
26158;BMP280;67284;44.782;10.282;2023-06-14T01:40:04;100389.03;;;20.50
26158;BMP280;67284;44.782;10.282;2023-06-14T01:45:00;100385.53;;;20.49
26158;BMP280;67284;44.782;10.282;2023-06-14T01:49:52;100383.97;;;20.47
26158;BMP280;67284;44.782;10.282;2023-06-14T01:54:44;100381.34;;;20.47
26158;BMP280;67284;44.782;10.282;2023-06-14T01:59:36;100377.97;;;20.45
26158;BMP280;67284;44.782;10.282;2023-06-14T02:04:28;100384.88;;;20.46
26158;BMP280;67284;44.782;10.282;2023-06-14T02:09:20;100371.91;;;20.44
26158;BMP280;67284;44.782;10.282;2023-06-14T02:14:12;100377.97;;;20.45
26158;BMP280;67284;44.782;10.282;2023-06-14T02:19:05;100374.59;;;20.43
26158;BMP280;67284;44.782;10.282;2023-06-14T02:23:56;100372.91;;;20.42
26158;BMP280;67284;44.782;10.282;2023-06-14T02:28:52;100378.13;;;20.42
26158;BMP280;67284;44.782;10.282;2023-06-14T02:33:44;100376.44;;;20.41
26158;BMP280;67284;44.782;10.282;2023-06-14T02:38:36;100380.00;;;20.40
26158;BMP280;67284;44.782;10.282;2023-06-14T02:43:29;100381.84;;;20.38
26158;BMP280;67284;44.782;10.282;2023-06-14T02:48:22;100379.31;;;20.37
26158;BMP280;67284;44.782;10.282;2023-06-14T02:53:14;100364.50;;;20.37
26158;BMP280;67284;44.782;10.282;2023-06-14T02:58:08;100361.88;;;20.37
26158;BMP280;67284;44.782;10.282;2023-06-14T03:03:01;100362.72;;;20.38
26158;BMP280;67284;44.782;10.282;2023-06-14T03:07:54;100369.72;;;20.37
26158;BMP280;67284;44.782;10.282;2023-06-14T03:12:46;100378.47;;;20.36
26158;BMP280;67284;44.782;10.282;2023-06-14T03:17:40;100368.03;;;20.36
26158;BMP280;67284;44.782;10.282;2023-06-14T03:22:33;100371.56;;;20.35
26158;BMP280;67284;44.782;10.282;2023-06-14T03:27:26;100375.09;;;20.34
26158;BMP280;67284;44.782;10.282;2023-06-14T03:32:20;100377.69;;;20.34
26158;BMP280;67284;44.782;10.282;2023-06-14T03:37:12;100373.41;;;20.33
26158;BMP280;67284;44.782;10.282;2023-06-14T03:42:05;100382.16;;;20.32
26158;BMP280;67284;44.782;10.282;2023-06-14T03:46:58;100389.09;;;20.33
26158;BMP280;67284;44.782;10.282;2023-06-14T03:51:52;100383.94;;;20.32
26158;BMP280;67284;44.782;10.282;2023-06-14T03:56:47;100383.88;;;20.33
26158;BMP280;67284;44.782;10.282;2023-06-14T04:01:39;100383.78;;;20.35
26158;BMP280;67284;44.782;10.282;2023-06-14T04:06:39;100388.06;;;20.36
26158;BMP280;67284;44.782;10.282;2023-06-14T04:11:34;100395.84;;;20.37
26158;BMP280;67284;44.782;10.282;2023-06-14T04:16:27;100396.69;;;20.38
26158;BMP280;67284;44.782;10.282;2023-06-14T04:21:20;100409.81;;;20.36
26158;BMP280;67284;44.782;10.282;2023-06-14T04:26:12;100401.13;;;20.36
26158;BMP280;67284;44.782;10.282;2023-06-14T04:31:07;100407.22;;;20.36
26158;BMP280;67284;44.782;10.282;2023-06-14T04:36:00;100408.13;;;20.35
26158;BMP280;67284;44.782;10.282;2023-06-14T04:40:52;100410.75;;;20.35
26158;BMP280;67284;44.782;10.282;2023-06-14T04:45:46;100417.66;;;20.36
26158;BMP280;67284;44.782;10.282;2023-06-14T04:50:39;100409.81;;;20.36
26158;BMP280;67284;44.782;10.282;2023-06-14T04:55:32;100425.50;;;20.36
26158;BMP280;67284;44.782;10.282;2023-06-14T05:00:26;100418.50;;;20.37
26158;BMP280;67284;44.782;10.282;2023-06-14T05:05:18;100416.75;;;20.37
26158;BMP280;67284;44.782;10.282;2023-06-14T05:10:11;100418.41;;;20.38
26158;BMP280;67284;44.782;10.282;2023-06-14T05:15:04;100430.56;;;20.39
26158;BMP280;67284;44.782;10.282;2023-06-14T05:19:56;100436.69;;;20.38
26158;BMP280;67284;44.782;10.282;2023-06-14T05:24:48;100432.25;;;20.40
26158;BMP280;67284;44.782;10.282;2023-06-14T05:29:40;100425.34;;;20.39
26158;BMP280;67284;44.782;10.282;2023-06-14T05:34:32;100424.41;;;20.40
26158;BMP280;67284;44.782;10.282;2023-06-14T05:39:23;100423.47;;;20.41
26158;BMP280;67284;44.782;10.282;2023-06-14T05:44:15;100425.16;;;20.42
26158;BMP280;67284;44.782;10.282;2023-06-14T05:49:07;100426.88;;;20.43
26158;BMP280;67284;44.782;10.282;2023-06-14T05:53:59;100428.53;;;20.44
26158;BMP280;67284;44.782;10.282;2023-06-14T05:58:51;100425.88;;;20.45
26158;BMP280;67284;44.782;10.282;2023-06-14T06:03:43;100421.47;;;20.46
26158;BMP280;67284;44.782;10.282;2023-06-14T06:08:38;100429.31;;;20.46
26158;BMP280;67284;44.782;10.282;2023-06-14T06:13:30;100426.69;;;20.46
26158;BMP280;67284;44.782;10.282;2023-06-14T06:18:22;100429.31;;;20.46
26158;BMP280;67284;44.782;10.282;2023-06-14T06:23:14;100430.13;;;20.46
26158;BMP280;67284;44.782;10.282;2023-06-14T06:28:05;100423.25;;;20.45
26158;BMP280;67284;44.782;10.282;2023-06-14T06:32:57;100439.69;;;20.47
26158;BMP280;67284;44.782;10.282;2023-06-14T06:38:10;100442.28;;;20.47
26158;BMP280;67284;44.782;10.282;2023-06-14T06:43:04;100445.72;;;20.48
26158;BMP280;67284;44.782;10.282;2023-06-14T06:48:04;100444.91;;;20.47
26158;BMP280;67284;44.782;10.282;2023-06-14T06:53:03;100459.66;;;20.48
26158;BMP280;67284;44.782;10.282;2023-06-14T06:57:54;100458.63;;;20.51
26158;BMP280;67284;44.782;10.282;2023-06-14T07:02:47;100466.34;;;20.54
26158;BMP280;67284;44.782;10.282;2023-06-14T07:07:42;100465.47;;;20.53
26158;BMP280;67284;44.782;10.282;2023-06-14T07:12:36;100468.97;;;20.54
26158;BMP280;67284;44.782;10.282;2023-06-14T07:17:31;100468.00;;;20.55
26158;BMP280;67284;44.782;10.282;2023-06-14T07:22:23;100474.00;;;20.57
26158;BMP280;67284;44.782;10.282;2023-06-14T07:27:16;100472.22;;;20.57
26158;BMP280;67284;44.782;10.282;2023-06-14T07:32:08;100486.03;;;20.59
26158;BMP280;67284;44.782;10.282;2023-06-14T07:37:01;100481.59;;;20.61
26158;BMP280;67284;44.782;10.282;2023-06-14T07:41:53;100486.75;;;20.63
26158;BMP280;67284;44.782;10.282;2023-06-14T07:46:45;100490.03;;;20.66
26158;BMP280;67284;44.782;10.282;2023-06-14T07:51:40;100497.75;;;20.69
26158;BMP280;67284;44.782;10.282;2023-06-14T07:56:32;100495.97;;;20.70
26158;BMP280;67284;44.782;10.282;2023-06-14T08:01:24;100485.44;;;20.71
26158;BMP280;67284;44.782;10.282;2023-06-14T08:06:17;100499.25;;;20.73
26158;BMP280;67284;44.782;10.282;2023-06-14T08:11:09;100508.78;;;20.74
26158;BMP280;67284;44.782;10.282;2023-06-14T08:16:01;100507.78;;;20.77
26158;BMP280;67284;44.782;10.282;2023-06-14T08:20:53;100513.94;;;20.76
26158;BMP280;67284;44.782;10.282;2023-06-14T08:25:46;100518.09;;;20.80
26158;BMP280;67284;44.782;10.282;2023-06-14T08:30:38;100519.78;;;20.81
26158;BMP280;67284;44.782;10.282;2023-06-14T08:35:30;100523.94;;;20.85
26158;BMP280;67284;44.782;10.282;2023-06-14T08:40:23;100521.44;;;20.82
26158;BMP280;67284;44.782;10.282;2023-06-14T08:45:15;100530.06;;;20.84
26158;BMP280;67284;44.782;10.282;2023-06-14T08:50:09;100528.22;;;20.86
26158;BMP280;67284;44.782;10.282;2023-06-14T08:55:18;100543.72;;;20.89
26158;BMP280;67284;44.782;10.282;2023-06-14T09:00:12;100541.97;;;20.89
26158;BMP280;67284;44.782;10.282;2023-06-14T09:05:05;100535.56;;;20.94
26158;BMP280;67284;44.782;10.282;2023-06-14T09:10:15;100527.66;;;20.96
26158;BMP280;67284;44.782;10.282;2023-06-14T09:15:07;100545.59;;;21.02
26158;BMP280;67284;44.782;10.282;2023-06-14T09:20:01;100540.28;;;21.03
26158;BMP280;67284;44.782;10.282;2023-06-14T09:24:54;100536.75;;;21.04
26158;BMP280;67284;44.782;10.282;2023-06-14T09:29:45;100539.69;;;21.14
26158;BMP280;67284;44.782;10.282;2023-06-14T09:34:37;100531.69;;;21.17
26158;BMP280;67284;44.782;10.282;2023-06-14T09:39:29;100535.41;;;21.28
26158;BMP280;67284;44.782;10.282;2023-06-14T09:44:21;100533.03;;;21.39
26158;BMP280;67284;44.782;10.282;2023-06-14T09:49:13;100536.03;;;21.47
26158;BMP280;67284;44.782;10.282;2023-06-14T09:54:05;100518.25;;;21.53
26158;BMP280;67284;44.782;10.282;2023-06-14T09:58:59;100512.75;;;21.58
26158;BMP280;67284;44.782;10.282;2023-06-14T10:04:02;100518.97;;;21.71
26158;BMP280;67284;44.782;10.282;2023-06-14T10:09:03;100517.13;;;21.73
26158;BMP280;67284;44.782;10.282;2023-06-14T10:13:57;100516.09;;;21.75
26158;BMP280;67284;44.782;10.282;2023-06-14T10:18:52;100515.25;;;21.75
26158;BMP280;67284;44.782;10.282;2023-06-14T10:23:49;100507.81;;;21.83
26158;BMP280;67284;44.782;10.282;2023-06-14T10:28:54;100505.75;;;21.88
26158;BMP280;67284;44.782;10.282;2023-06-14T10:38:45;100498.06;;;21.85
26158;BMP280;67284;44.782;10.282;2023-06-14T10:43:37;100493.09;;;21.80
26158;BMP280;67284;44.782;10.282;2023-06-14T10:48:31;100488.88;;;21.78
26158;BMP280;67284;44.782;10.282;2023-06-14T10:53:23;100496.47;;;21.82
26158;BMP280;67284;44.782;10.282;2023-06-14T10:58:18;100487.88;;;21.80
26158;BMP280;67284;44.782;10.282;2023-06-14T11:03:43;100481.25;;;21.89
26158;BMP280;67284;44.782;10.282;2023-06-14T11:14:10;100481.28;;;22.02
26158;BMP280;67284;44.782;10.282;2023-06-14T11:19:03;100483.22;;;21.99
26158;BMP280;67284;44.782;10.282;2023-06-14T11:23:55;100464.69;;;21.88
26158;BMP280;67284;44.782;10.282;2023-06-14T11:28:47;100462.19;;;21.87
26158;BMP280;67284;44.782;10.282;2023-06-14T11:33:39;100460.88;;;21.94
26158;BMP280;67284;44.782;10.282;2023-06-14T11:38:35;100453.28;;;22.03
26158;BMP280;67284;44.782;10.282;2023-06-14T11:43:27;100452.09;;;22.08
26158;BMP280;67284;44.782;10.282;2023-06-14T11:48:18;100463.50;;;22.21
26158;BMP280;67284;44.782;10.282;2023-06-14T11:53:11;100451.06;;;22.11
26158;BMP280;67284;44.782;10.282;2023-06-14T11:58:04;100453.28;;;22.03
26158;BMP280;67284;44.782;10.282;2023-06-14T12:02:57;100447.03;;;22.05
26158;BMP280;67284;44.782;10.282;2023-06-14T12:07:50;100441.25;;;22.00
26158;BMP280;67284;44.782;10.282;2023-06-14T12:12:45;100433.00;;;22.06
26158;BMP280;67284;44.782;10.282;2023-06-14T12:17:37;100422.16;;;22.12
26158;BMP280;67284;44.782;10.282;2023-06-14T12:22:33;100420.75;;;22.21
26158;BMP280;67284;44.782;10.282;2023-06-14T12:27:25;100424.72;;;22.28
26158;BMP280;67284;44.782;10.282;2023-06-14T12:32:20;100421.34;;;22.26
26158;BMP280;67284;44.782;10.282;2023-06-14T12:37:16;100408.06;;;22.29
26158;BMP280;67284;44.782;10.282;2023-06-14T12:42:08;100409.91;;;22.41
26158;BMP280;67284;44.782;10.282;2023-06-14T12:46:59;100413.44;;;22.53
26158;BMP280;67284;44.782;10.282;2023-06-14T12:51:51;100418.22;;;22.61
26158;BMP280;67284;44.782;10.282;2023-06-14T12:56:43;100412.09;;;22.60
26158;BMP280;67284;44.782;10.282;2023-06-14T13:01:38;100403.03;;;22.66
26158;BMP280;67284;44.782;10.282;2023-06-14T13:06:30;100408.72;;;22.72
26158;BMP280;67284;44.782;10.282;2023-06-14T13:11:22;100410.16;;;22.64
26158;BMP280;67284;44.782;10.282;2023-06-14T13:16:14;100406.84;;;22.74
26158;BMP280;67284;44.782;10.282;2023-06-14T13:21:06;100418.19;;;22.75
26158;BMP280;67284;44.782;10.282;2023-06-14T13:25:58;100419.84;;;22.76
26158;BMP280;67284;44.782;10.282;2023-06-14T13:30:54;100414.06;;;22.71
26158;BMP280;67284;44.782;10.282;2023-06-14T13:35:47;100408.06;;;22.69
26158;BMP280;67284;44.782;10.282;2023-06-14T13:40:40;100403.22;;;22.63
26158;BMP280;67284;44.782;10.282;2023-06-14T13:45:32;100406.59;;;22.65
26158;BMP280;67284;44.782;10.282;2023-06-14T13:50:24;100402.19;;;22.65
26158;BMP280;67284;44.782;10.282;2023-06-14T13:55:16;100403.97;;;22.65
26158;BMP280;67284;44.782;10.282;2023-06-14T14:00:08;100392.53;;;22.66
26158;BMP280;67284;44.782;10.282;2023-06-14T14:05:04;100396.13;;;22.65
26158;BMP280;67284;44.782;10.282;2023-06-14T14:09:56;100393.50;;;22.65
26158;BMP280;67284;44.782;10.282;2023-06-14T14:14:49;100391.59;;;22.67
26158;BMP280;67284;44.782;10.282;2023-06-14T14:19:42;100388.34;;;22.63
26158;BMP280;67284;44.782;10.282;2023-06-14T14:24:34;100384.22;;;22.59
26158;BMP280;67284;44.782;10.282;2023-06-14T14:29:26;100384.53;;;22.55
26158;BMP280;67284;44.782;10.282;2023-06-14T14:34:20;100377.69;;;22.52
26158;BMP280;67284;44.782;10.282;2023-06-14T14:39:12;100368.97;;;22.52
26158;BMP280;67284;44.782;10.282;2023-06-14T14:44:04;100378.41;;;22.54
26158;BMP280;67284;44.782;10.282;2023-06-14T14:48:58;100377.38;;;22.57
26158;BMP280;67284;44.782;10.282;2023-06-14T14:53:50;100358.94;;;22.58
26158;BMP280;67284;44.782;10.282;2023-06-14T14:58:46;100369.22;;;22.61
26158;BMP280;67284;44.782;10.282;2023-06-14T15:03:38;100368.41;;;22.61
26158;BMP280;67284;44.782;10.282;2023-06-14T15:08:48;100373.53;;;22.62
26158;BMP280;67284;44.782;10.282;2023-06-14T15:13:40;100368.41;;;22.61
26158;BMP280;67284;44.782;10.282;2023-06-14T15:18:32;100378.13;;;22.59
26158;BMP280;67284;44.782;10.282;2023-06-14T15:23:23;100377.38;;;22.57
26158;BMP280;67284;44.782;10.282;2023-06-14T15:28:15;100363.56;;;22.55
26158;BMP280;67284;44.782;10.282;2023-06-14T15:33:07;100370.56;;;22.54
26158;BMP280;67284;44.782;10.282;2023-06-14T15:37:59;100375.16;;;22.51
26158;BMP280;67284;44.782;10.282;2023-06-14T15:42:51;100365.81;;;22.47
26158;BMP280;67284;44.782;10.282;2023-06-14T15:47:43;100367.03;;;22.42
26158;BMP280;67284;44.782;10.282;2023-06-14T15:52:35;100355.88;;;22.38
26158;BMP280;67284;44.782;10.282;2023-06-14T15:57:27;100353.19;;;22.40
26158;BMP280;67284;44.782;10.282;2023-06-14T16:02:18;100349.50;;;22.42
26158;BMP280;67284;44.782;10.282;2023-06-14T16:07:10;100333.78;;;22.42
26158;BMP280;67284;44.782;10.282;2023-06-14T16:12:04;100333.88;;;22.41
26158;BMP280;67284;44.782;10.282;2023-06-14T16:16:57;100342.03;;;22.36
26158;BMP280;67284;44.782;10.282;2023-06-14T16:21:49;100346.16;;;22.40
26158;BMP280;67284;44.782;10.282;2023-06-14T16:26:41;100333.69;;;22.44
26158;BMP280;67284;44.782;10.282;2023-06-14T16:31:34;100340.41;;;22.48
26158;BMP280;67284;44.782;10.282;2023-06-14T16:36:26;100340.81;;;22.42
26158;BMP280;67284;44.782;10.282;2023-06-14T16:41:18;100356.34;;;22.45
26158;BMP280;67284;44.782;10.282;2023-06-14T16:46:10;100356.53;;;22.42
26158;BMP280;67284;44.782;10.282;2023-06-14T16:51:03;100366.47;;;22.37
26158;BMP280;67284;44.782;10.282;2023-06-14T16:55:55;100375.38;;;22.34
26158;BMP280;67284;44.782;10.282;2023-06-14T17:00:47;100379.75;;;22.34
26158;BMP280;67284;44.782;10.282;2023-06-14T17:05:53;100384.06;;;22.35
26158;BMP280;67284;44.782;10.282;2023-06-14T17:10:46;100381.56;;;22.33
26158;BMP280;67284;44.782;10.282;2023-06-14T17:15:38;100386.78;;;22.33
26158;BMP280;67284;44.782;10.282;2023-06-14T17:20:32;100397.38;;;22.32
26158;BMP280;67284;44.782;10.282;2023-06-14T17:25:24;100407.09;;;22.30
26158;BMP280;67284;44.782;10.282;2023-06-14T17:30:16;100410.69;;;22.29
26158;BMP280;67284;44.782;10.282;2023-06-14T17:35:08;100407.38;;;22.25
26158;BMP280;67284;44.782;10.282;2023-06-14T17:40:00;100418.03;;;22.22
26158;BMP280;67284;44.782;10.282;2023-06-14T17:44:52;100423.28;;;22.22
26158;BMP280;67284;44.782;10.282;2023-06-14T17:49:47;100429.63;;;22.18
26158;BMP280;67284;44.782;10.282;2023-06-14T17:54:43;100431.50;;;22.16
26158;BMP280;67284;44.782;10.282;2023-06-14T17:59:35;100430.75;;;22.14
26158;BMP280;67284;44.782;10.282;2023-06-14T18:04:27;100436.06;;;22.13
26158;BMP280;67284;44.782;10.282;2023-06-14T18:09:20;100440.47;;;22.12
26158;BMP280;67284;44.782;10.282;2023-06-14T18:14:12;100448.44;;;22.11
26158;BMP280;67284;44.782;10.282;2023-06-14T18:19:04;100444.22;;;22.08
26158;BMP280;67284;44.782;10.282;2023-06-14T18:23:55;100444.31;;;22.07
26158;BMP280;67284;44.782;10.282;2023-06-14T18:28:47;100452.94;;;22.09
26158;BMP280;67284;44.782;10.282;2023-06-14T18:33:40;100452.94;;;22.09
26158;BMP280;67284;44.782;10.282;2023-06-14T18:38:32;100468.81;;;22.06
26158;BMP280;67284;44.782;10.282;2023-06-14T18:43:24;100473.31;;;22.04
26158;BMP280;67284;44.782;10.282;2023-06-14T18:48:16;100488.22;;;22.03
26158;BMP280;67284;44.782;10.282;2023-06-14T18:53:08;100483.06;;;22.02
26158;BMP280;67284;44.782;10.282;2023-06-14T18:57:59;100479.03;;;21.97
26158;BMP280;67284;44.782;10.282;2023-06-14T19:02:51;100489.69;;;21.94
26158;BMP280;67284;44.782;10.282;2023-06-14T19:07:43;100491.72;;;21.89
26158;BMP280;67284;44.782;10.282;2023-06-14T19:12:35;100498.06;;;21.85
26158;BMP280;67284;44.782;10.282;2023-06-14T19:17:27;100497.59;;;21.78
26158;BMP280;67284;44.782;10.282;2023-06-14T19:22:19;100503.84;;;21.76
26158;BMP280;67284;44.782;10.282;2023-06-14T19:27:11;100506.66;;;21.73
26158;BMP280;67284;44.782;10.282;2023-06-14T19:32:04;100513.75;;;21.71
26158;BMP280;67284;44.782;10.282;2023-06-14T19:36:56;100520.84;;;21.69
26158;BMP280;67284;44.782;10.282;2023-06-14T19:41:48;100533.16;;;21.67
26158;BMP280;67284;44.782;10.282;2023-06-14T19:46:40;100534.22;;;21.64
26158;BMP280;67284;44.782;10.282;2023-06-14T19:51:32;100539.63;;;21.61
26158;BMP280;67284;44.782;10.282;2023-06-14T19:56:24;100552.78;;;21.60
26158;BMP280;67284;44.782;10.282;2023-06-14T20:01:15;100566.81;;;21.59
26158;BMP280;67284;44.782;10.282;2023-06-14T20:06:07;100563.44;;;21.57
26158;BMP280;67284;44.782;10.282;2023-06-14T20:11:02;100568.84;;;21.54
26158;BMP280;67284;44.782;10.282;2023-06-14T20:15:54;100582.09;;;21.51
26158;BMP280;67284;44.782;10.282;2023-06-14T20:20:49;100588.25;;;21.50
26158;BMP280;67284;44.782;10.282;2023-06-14T20:25:41;100593.63;;;21.47
26158;BMP280;67284;44.782;10.282;2023-06-14T20:30:33;100594.66;;;21.44
26158;BMP280;67284;44.782;10.282;2023-06-14T20:35:26;100602.59;;;21.43
26158;BMP280;67284;44.782;10.282;2023-06-14T20:40:22;100602.50;;;21.44
26158;BMP280;67284;44.782;10.282;2023-06-14T20:45:14;100604.28;;;21.44
26158;BMP280;67284;44.782;10.282;2023-06-14T20:50:07;100607.81;;;21.43
26158;BMP280;67284;44.782;10.282;2023-06-14T20:55:03;100611.22;;;21.45
26158;BMP280;67284;44.782;10.282;2023-06-14T20:59:55;100606.06;;;21.43
26158;BMP280;67284;44.782;10.282;2023-06-14T21:04:46;100601.66;;;21.44
26158;BMP280;67284;44.782;10.282;2023-06-14T21:09:39;100614.00;;;21.42
26158;BMP280;67284;44.782;10.282;2023-06-14T21:14:34;100611.38;;;21.42
26158;BMP280;67284;44.782;10.282;2023-06-14T21:19:26;100615.84;;;21.40
26158;BMP280;67284;44.782;10.282;2023-06-14T21:24:18;100616.72;;;21.41
26158;BMP280;67284;44.782;10.282;2023-06-14T21:29:10;100618.47;;;21.40
26158;BMP280;67284;44.782;10.282;2023-06-14T21:34:03;100623.78;;;21.39
26158;BMP280;67284;44.782;10.282;2023-06-14T21:38:54;100617.72;;;21.38
26158;BMP280;67284;44.782;10.282;2023-06-14T21:43:46;100616.84;;;21.38
26158;BMP280;67284;44.782;10.282;2023-06-14T21:48:38;100624.88;;;21.35
26158;BMP280;67284;44.782;10.282;2023-06-14T21:53:30;100628.53;;;21.32
26158;BMP280;67284;44.782;10.282;2023-06-14T21:58:25;100630.28;;;21.32
26158;BMP280;67284;44.782;10.282;2023-06-14T22:03:16;100633.84;;;21.31
26158;BMP280;67284;44.782;10.282;2023-06-14T22:08:09;100647.84;;;21.30
26158;BMP280;67284;44.782;10.282;2023-06-14T22:13:01;100654.91;;;21.28
26158;BMP280;67284;44.782;10.282;2023-06-14T22:17:53;100668.94;;;21.27
26158;BMP280;67284;44.782;10.282;2023-06-14T22:22:47;100676.88;;;21.25
26158;BMP280;67284;44.782;10.282;2023-06-14T22:27:41;100683.88;;;21.25
26158;BMP280;67284;44.782;10.282;2023-06-14T22:32:39;100682.25;;;21.22
26158;BMP280;67284;44.782;10.282;2023-06-14T22:37:31;100678.06;;;21.20
26158;BMP280;67284;44.782;10.282;2023-06-14T22:42:29;100680.75;;;21.18
26158;BMP280;67284;44.782;10.282;2023-06-14T22:47:21;100688.59;;;21.18
26158;BMP280;67284;44.782;10.282;2023-06-14T22:52:13;100685.19;;;21.16
26158;BMP280;67284;44.782;10.282;2023-06-14T22:57:05;100677.44;;;21.15
26158;BMP280;67284;44.782;10.282;2023-06-14T23:01:59;100685.38;;;21.13
26158;BMP280;67284;44.782;10.282;2023-06-14T23:06:51;100677.53;;;21.13
26158;BMP280;67284;44.782;10.282;2023-06-14T23:11:43;100672.28;;;21.13
26158;BMP280;67284;44.782;10.282;2023-06-14T23:16:35;100663.69;;;21.11
26158;BMP280;67284;44.782;10.282;2023-06-14T23:21:27;100654.22;;;21.09
26158;BMP280;67284;44.782;10.282;2023-06-14T23:26:20;100658.63;;;21.08
26158;BMP280;67284;44.782;10.282;2023-06-14T23:31:21;100656.91;;;21.07
26158;BMP280;67284;44.782;10.282;2023-06-14T23:36:14;100653.53;;;21.05
26158;BMP280;67284;44.782;10.282;2023-06-14T23:41:06;100668.38;;;21.05
26158;BMP280;67284;44.782;10.282;2023-06-14T23:45:58;100659.78;;;21.03
26158;BMP280;67284;44.782;10.282;2023-06-14T23:50:55;100667.72;;;21.01
26158;BMP280;67284;44.782;10.282;2023-06-14T23:55:47;100664.22;;;21.01
